createdAt,value
2018-09-11T00:01:02.119Z,18.46
2018-09-11T00:02:08.641Z,18.49
2018-09-11T00:03:10.084Z,18.42
2018-09-11T00:04:15.008Z,18.40
2018-09-11T00:06:36.221Z,18.42
2018-09-11T00:07:40.737Z,18.43
2018-09-11T00:08:34.294Z,18.39
2018-09-11T00:10:59.300Z,18.34
2018-09-11T00:11:51.836Z,18.31
2018-09-11T00:13:04.234Z,18.33
2018-09-11T00:14:09.464Z,18.21
2018-09-11T00:15:25.038Z,18.25
2018-09-11T00:16:21.878Z,18.22
2018-09-11T00:17:17.888Z,18.24
2018-09-11T00:18:33.874Z,18.19
2018-09-11T00:20:52.528Z,18.22
2018-09-11T00:21:46.190Z,18.19
2018-09-11T00:22:52.749Z,18.15
2018-09-11T00:23:54.707Z,18.15
2018-09-11T00:25:00.806Z,18.13
2018-09-11T00:26:00.456Z,18.15
2018-09-11T00:27:14.393Z,18.24
2018-09-11T00:28:20.650Z,18.17
2018-09-11T00:29:31.511Z,18.17
2018-09-11T00:30:46.165Z,18.18
2018-09-11T00:31:39.721Z,18.15
2018-09-11T00:32:45.361Z,18.04
2018-09-11T00:33:52.232Z,18.06
2018-09-11T00:34:52.344Z,18.06
2018-09-11T00:36:00.958Z,18.04
2018-09-11T00:37:18.776Z,18.02
2018-09-11T00:39:16.443Z,17.99
2018-09-11T00:41:28.851Z,18.04
2018-09-11T00:42:27.424Z,18.03
2018-09-11T00:44:40.960Z,17.92
2018-09-11T00:45:53.975Z,17.97
2018-09-11T00:46:47.430Z,17.99
2018-09-11T00:47:57.680Z,17.92
2018-09-11T00:49:12.239Z,17.89
2018-09-11T00:50:04.252Z,18.02
2018-09-11T00:53:19.434Z,18.02
2018-09-11T00:54:29.686Z,17.94
2018-09-11T00:55:35.939Z,17.92
2018-09-11T00:56:45.677Z,17.92
2018-09-11T00:58:48.974Z,17.99
2018-09-11T01:00:05.775Z,17.88
2018-09-11T01:01:21.251Z,17.99
2018-09-11T01:03:21.063Z,17.91
2018-09-11T01:04:27.421Z,18.03
2018-09-11T01:05:35.939Z,17.89
2018-09-11T01:06:38.292Z,17.94
2018-09-11T01:08:47.116Z,17.84
2018-09-11T01:09:44.273Z,17.87
2018-09-11T01:11:03.006Z,17.94
2018-09-11T01:13:10.295Z,18.00
2018-09-11T01:14:03.141Z,18.00
2018-09-11T01:15:16.050Z,17.99
2018-09-11T01:17:36.138Z,17.85
2018-09-11T01:18:27.135Z,17.99
2018-09-11T01:19:45.072Z,18.04
2018-09-11T01:20:46.817Z,17.89
2018-09-11T01:21:49.284Z,17.91
2018-09-11T01:23:11.412Z,17.91
2018-09-11T01:23:56.880Z,18.03
2018-09-11T01:25:17.883Z,18.02
2018-09-11T01:26:02.837Z,17.92
2018-09-11T01:27:14.420Z,18.03
2018-09-11T01:28:28.558Z,17.94
2018-09-11T01:29:26.112Z,18.04
2018-09-11T01:30:35.337Z,17.99
2018-09-11T01:31:36.881Z,18.02
2018-09-11T01:32:42.010Z,17.97
2018-09-11T01:33:49.291Z,18.03
2018-09-11T01:34:52.167Z,18.03
2018-09-11T01:36:11.940Z,17.99
2018-09-11T01:37:03.856Z,18.00
2018-09-11T01:38:12.470Z,17.97
2018-09-11T01:41:35.536Z,18.15
2018-09-11T01:42:24.997Z,18.18
2018-09-11T01:43:48.151Z,18.06
2018-09-11T01:45:53.085Z,18.03
2018-09-11T01:47:03.130Z,18.10
2018-09-11T01:48:02.832Z,18.09
2018-09-11T01:49:15.132Z,18.10
2018-09-11T01:50:10.120Z,18.18
2018-09-11T01:53:27.347Z,18.06
2018-09-11T01:55:39.038Z,18.02
2018-09-11T01:57:58.306Z,18.09
2018-09-11T01:59:05.176Z,18.07
2018-09-11T02:01:12.591Z,18.13
2018-09-11T02:02:11.554Z,18.07
2018-09-11T02:03:33.688Z,18.07
2018-09-11T02:05:49.163Z,18.13
2018-09-11T02:06:50.193Z,18.06
2018-09-11T02:07:42.113Z,18.09
2018-09-11T02:09:50.527Z,18.19
2018-09-11T02:11:02.182Z,18.07
2018-09-11T02:12:02.321Z,18.09
2018-09-11T02:13:09.601Z,18.03
2018-09-11T02:14:11.656Z,18.06
2018-09-11T02:15:25.693Z,17.99
2018-09-11T02:16:30.515Z,18.04
2018-09-11T02:17:24.686Z,18.04
2018-09-11T02:18:37.805Z,18.03
2018-09-11T02:19:41.909Z,18.04
2018-09-11T02:20:45.911Z,17.97
2018-09-11T02:21:51.659Z,17.95
2018-09-11T02:22:58.627Z,18.03
2018-09-11T02:24:11.953Z,18.03
2018-09-11T02:26:12.069Z,18.04
2018-09-11T02:27:24.468Z,18.03
2018-09-11T02:28:26.934Z,17.94
2018-09-11T02:29:32.983Z,17.88
2018-09-11T02:30:37.602Z,17.88
2018-09-11T02:31:50.104Z,17.85
2018-09-11T02:32:44.173Z,18.02
2018-09-11T02:33:51.044Z,18.00
2018-09-11T02:34:54.228Z,18.04
2018-09-11T02:36:04.169Z,18.07
2018-09-11T02:37:14.623Z,18.04
2018-09-11T02:38:08.076Z,17.92
2018-09-11T02:39:30.821Z,17.88
2018-09-11T02:40:27.043Z,17.87
2018-09-11T02:41:38.724Z,17.85
2018-09-11T02:42:38.835Z,17.89
2018-09-11T02:43:39.151Z,17.89
2018-09-11T02:44:46.842Z,17.87
2018-09-11T02:45:54.846Z,17.89
2018-09-11T02:47:00.381Z,17.87
2018-09-11T02:48:04.793Z,17.84
2018-09-11T02:49:20.391Z,17.87
2018-09-11T02:50:21.605Z,17.91
2018-09-11T02:51:41.172Z,17.84
2018-09-11T02:52:43.636Z,17.78
2018-09-11T02:53:29.923Z,17.91
2018-09-11T02:54:35.875Z,17.85
2018-09-11T02:55:51.036Z,17.94
2018-09-11T02:57:00.162Z,17.85
2018-09-11T02:57:53.719Z,17.87
2018-09-11T02:58:55.977Z,17.85
2018-09-11T03:00:10.529Z,17.81
2018-09-11T03:01:03.205Z,17.89
2018-09-11T03:02:15.167Z,17.88
2018-09-11T03:03:24.175Z,17.82
2018-09-11T03:04:27.871Z,17.88
2018-09-11T03:05:23.476Z,17.84
2018-09-11T03:06:38.030Z,17.82
2018-09-11T03:07:38.341Z,17.85
2018-09-11T03:08:52.279Z,17.82
2018-09-11T03:09:52.290Z,17.91
2018-09-11T03:11:05.610Z,17.78
2018-09-11T03:12:10.637Z,17.79
2018-09-11T03:13:03.578Z,17.79
2018-09-11T03:16:27.263Z,17.76
2018-09-11T03:17:39.252Z,17.81
2018-09-11T03:18:40.829Z,17.73
2018-09-11T03:19:45.826Z,17.81
2018-09-11T03:20:54.743Z,17.73
2018-09-11T03:21:57.413Z,17.79
2018-09-11T03:22:57.422Z,17.78
2018-09-11T03:24:05.523Z,17.66
2018-09-11T03:25:11.368Z,17.76
2018-09-11T03:27:20.811Z,17.73
2018-09-11T03:28:24.501Z,17.69
2018-09-11T03:29:39.153Z,17.74
2018-09-11T03:31:46.955Z,17.69
2018-09-11T03:32:53.010Z,17.66
2018-09-11T03:36:11.570Z,17.67
2018-09-11T03:37:08.096Z,17.67
2018-09-11T03:38:26.434Z,17.59
2018-09-11T03:39:23.578Z,17.63
2018-09-11T03:40:29.423Z,17.66
2018-09-11T03:41:36.697Z,17.67
2018-09-11T03:42:51.454Z,17.69
2018-09-11T03:43:51.156Z,17.66
2018-09-11T03:44:45.326Z,17.54
2018-09-11T03:46:00.702Z,17.66
2018-09-11T03:47:00.913Z,17.63
2018-09-11T03:48:14.540Z,17.66
2018-09-11T03:49:08.812Z,17.67
2018-09-11T03:52:25.225Z,17.69
2018-09-11T03:53:38.339Z,17.71
2018-09-11T03:56:52.704Z,17.63
2018-09-11T03:59:04.305Z,17.70
2018-09-11T04:00:03.689Z,17.74
2018-09-11T04:01:08.927Z,17.70
2018-09-11T04:02:21.015Z,17.69
2018-09-11T04:03:27.065Z,17.74
2018-09-11T04:04:38.749Z,17.74
2018-09-11T04:05:39.680Z,17.76
2018-09-11T04:06:36.414Z,17.82
2018-09-11T04:07:45.433Z,17.79
2018-09-11T04:08:57.724Z,17.79
2018-09-11T04:09:59.991Z,17.84
2018-09-11T04:11:03.991Z,17.89
2018-09-11T04:12:12.396Z,17.85
2018-09-11T04:13:15.170Z,17.87
2018-09-11T04:14:18.151Z,17.91
2018-09-11T04:16:28.919Z,17.92
2018-09-11T04:17:38.144Z,17.99
2018-09-11T04:18:46.349Z,18.02
2018-09-11T04:20:58.650Z,18.00
2018-09-11T04:22:01.731Z,18.06
2018-09-11T04:24:19.360Z,18.04
2018-09-11T04:25:21.929Z,17.95
2018-09-11T04:27:30.450Z,18.13
2018-09-11T04:28:37.421Z,18.15
2018-09-11T04:29:32.923Z,18.17
2018-09-11T04:30:48.600Z,18.17
2018-09-11T04:31:54.447Z,18.13
2018-09-11T04:32:54.454Z,18.18
2018-09-11T04:34:02.961Z,18.24
2018-09-11T04:35:15.569Z,18.25
2018-09-11T04:36:11.482Z,18.25
2018-09-11T04:40:33.123Z,18.29
2018-09-11T04:41:40.097Z,18.28
2018-09-11T04:42:40.616Z,18.25
2018-09-11T04:43:53.117Z,18.33
2018-09-11T04:44:54.253Z,18.37
2018-09-11T04:47:02.157Z,18.42
2018-09-11T04:49:12.211Z,18.44
2018-09-11T04:52:35.894Z,18.43
2018-09-11T04:53:38.260Z,18.47
2018-09-11T04:54:36.117Z,18.44
2018-09-11T04:56:01.990Z,18.46
2018-09-11T04:56:53.954Z,18.50
2018-09-11T04:58:03.590Z,18.55
2018-09-11T04:59:10.360Z,18.49
2018-09-11T05:00:25.939Z,18.50
2018-09-11T05:01:30.036Z,18.50
2018-09-11T05:02:23.081Z,18.50
2018-09-11T05:04:45.116Z,18.57
2018-09-11T05:05:51.165Z,18.55
2018-09-11T05:06:49.228Z,18.58
2018-09-11T05:07:50.465Z,18.59
2018-09-11T05:09:03.687Z,18.65
2018-09-11T05:11:14.659Z,18.55
2018-09-11T05:12:15.492Z,18.68
2018-09-11T05:13:15.398Z,18.70
2018-09-11T05:14:23.697Z,18.73
2018-09-11T05:15:31.793Z,18.61
2018-09-11T05:17:41.848Z,18.58
2018-09-11T05:19:02.561Z,18.70
2018-09-11T05:19:57.228Z,18.55
2018-09-11T05:20:54.983Z,18.72
2018-09-11T05:22:08.920Z,18.70
2018-09-11T05:23:05.446Z,18.68
2018-09-11T05:24:09.554Z,18.59
2018-09-11T05:25:22.977Z,18.65
2018-09-11T05:26:31.394Z,18.64
2018-09-11T05:27:28.590Z,18.64
2018-09-11T05:28:41.743Z,18.59
2018-09-11T05:29:38.170Z,18.70
2018-09-11T05:31:48.222Z,18.59
2018-09-11T05:32:56.833Z,18.70
2018-09-11T05:34:06.570Z,18.61
2018-09-11T05:36:19.183Z,18.58
2018-09-11T05:39:28.427Z,18.70
2018-09-11T05:40:38.881Z,18.67
2018-09-11T05:41:49.648Z,18.64
2018-09-11T05:42:47.097Z,18.73
2018-09-11T05:43:48.442Z,18.67
2018-09-11T05:47:10.538Z,18.64
2018-09-11T05:48:28.504Z,18.61
2018-09-11T05:50:41.124Z,18.65
2018-09-11T05:51:42.458Z,18.62
2018-09-11T05:52:46.359Z,18.65
2018-09-11T05:53:41.757Z,18.70
2018-09-11T05:54:46.990Z,18.62
2018-09-11T05:56:04.612Z,18.65
2018-09-11T05:57:00.117Z,18.67
2018-09-11T05:57:59.714Z,18.65
2018-09-11T05:59:06.483Z,18.67
2018-09-11T06:00:29.222Z,18.68
2018-09-11T06:01:17.759Z,18.64
2018-09-11T06:03:38.572Z,18.67
2018-09-11T06:04:31.819Z,18.73
2018-09-11T06:05:37.569Z,18.70
2018-09-11T06:06:55.289Z,18.74
2018-09-11T06:09:01.040Z,18.77
2018-09-11T06:10:15.490Z,18.67
2018-09-11T06:11:21.645Z,18.73
2018-09-11T06:13:22.682Z,18.77
2018-09-11T06:15:36.729Z,18.74
2018-09-11T06:16:38.785Z,18.79
2018-09-11T06:18:53.650Z,18.83
2018-09-11T06:20:01.034Z,18.86
2018-09-11T06:21:05.548Z,18.87
2018-09-11T06:22:16.208Z,18.92
2018-09-11T06:23:17.753Z,18.94
2018-09-11T06:25:25.248Z,18.95
2018-09-11T06:26:33.348Z,18.95
2018-09-11T06:27:46.362Z,18.95
2018-09-11T06:29:49.144Z,18.91
2018-09-11T06:30:49.471Z,19.02
2018-09-11T06:31:51.414Z,18.97
2018-09-11T06:33:04.429Z,18.99
2018-09-11T06:34:14.075Z,19.05
2018-09-11T06:35:11.311Z,19.05
2018-09-11T06:36:14.188Z,19.08
2018-09-11T06:38:26.703Z,19.05
2018-09-11T06:39:35.207Z,19.10
2018-09-11T06:40:40.750Z,19.10
2018-09-11T06:41:46.282Z,19.10
2018-09-11T06:43:01.859Z,19.10
2018-09-11T06:44:00.946Z,19.02
2018-09-11T06:46:02.605Z,19.08
2018-09-11T06:47:15.210Z,19.08
2018-09-11T06:48:17.269Z,19.08
2018-09-11T06:49:23.523Z,19.10
2018-09-11T06:51:38.493Z,19.08
2018-09-11T06:52:37.066Z,19.02
2018-09-11T06:53:39.123Z,19.02
2018-09-11T06:54:53.503Z,19.01
2018-09-11T06:55:55.124Z,19.06
2018-09-11T06:57:04.754Z,19.06
2018-09-11T06:58:05.992Z,19.01
2018-09-11T07:00:25.781Z,19.14
2018-09-11T07:02:44.021Z,19.14
2018-09-11T07:03:35.325Z,19.13
2018-09-11T07:04:54.276Z,19.15
2018-09-11T07:05:45.692Z,19.11
2018-09-11T07:06:49.377Z,19.11
2018-09-11T07:07:56.450Z,19.17
2018-09-11T07:09:08.032Z,19.17
2018-09-11T07:12:15.348Z,19.24
2018-09-11T07:13:25.576Z,19.35
2018-09-11T07:14:27.226Z,19.40
2018-09-11T07:15:57.547Z,19.38
2018-09-11T07:16:49.668Z,19.36
2018-09-11T07:17:52.545Z,19.36
2018-09-11T07:18:59.617Z,19.29
2018-09-11T07:20:09.543Z,19.40
2018-09-11T07:21:11.000Z,19.35
2018-09-11T07:22:14.902Z,19.39
2018-09-11T07:23:18.704Z,19.36
2018-09-11T07:24:27.820Z,19.36
2018-09-11T07:25:21.174Z,19.39
2018-09-11T07:26:46.074Z,19.46
2018-09-11T07:27:35.428Z,19.48
2018-09-11T07:28:50.797Z,19.50
2018-09-11T07:29:47.528Z,19.54
2018-09-11T07:30:53.785Z,19.51
2018-09-11T07:32:01.372Z,19.51
2018-09-11T07:32:59.744Z,19.58
2018-09-11T07:34:27.199Z,19.57
2018-09-11T07:35:17.990Z,19.63
2018-09-11T07:36:34.284Z,19.63
2018-09-11T07:37:29.381Z,19.69
2018-09-11T07:38:37.371Z,19.68
2018-09-11T07:39:37.070Z,19.65
2018-09-11T07:40:59.918Z,19.65
2018-09-11T07:41:54.086Z,19.72
2018-09-11T07:43:00.905Z,19.75
2018-09-11T07:44:06.391Z,19.78
2018-09-11T07:45:12.030Z,19.78
2018-09-11T07:46:25.559Z,19.73
2018-09-11T07:47:15.531Z,19.76
2018-09-11T07:48:28.861Z,19.79
2018-09-11T07:50:34.809Z,19.80
2018-09-11T07:51:45.777Z,19.88
2018-09-11T07:53:04.937Z,19.88
2018-09-11T07:54:00.751Z,19.95
2018-09-11T07:55:05.158Z,19.98
2018-09-11T07:57:06.201Z,20.00
2018-09-11T07:59:21.883Z,20.06
2018-09-11T08:00:30.808Z,20.16
2018-09-11T08:01:38.600Z,20.21
2018-09-11T08:02:44.443Z,20.16
2018-09-11T08:04:07.903Z,20.24
2018-09-11T08:04:44.155Z,20.27
2018-09-11T08:06:03.107Z,20.31
2018-09-11T08:07:23.698Z,20.35
2018-09-11T08:09:38.227Z,20.51
2018-09-11T08:10:18.604Z,20.58
2018-09-11T08:11:31.004Z,20.56
2018-09-11T08:12:41.848Z,20.58
2018-09-11T08:13:42.697Z,20.53
2018-09-11T08:14:54.793Z,20.56
2018-09-11T08:16:04.629Z,20.51
2018-09-11T08:17:00.644Z,20.61
2018-09-11T08:18:05.059Z,20.59
2018-09-11T08:19:07.936Z,20.64
2018-09-11T08:20:21.466Z,20.66
2018-09-11T08:21:15.945Z,20.68
2018-09-11T08:22:12.260Z,20.71
2018-09-11T08:23:16.060Z,20.79
2018-09-11T08:24:39.416Z,20.80
2018-09-11T08:25:48.236Z,20.76
2018-09-11T08:26:48.140Z,20.91
2018-09-11T08:29:06.590Z,20.86
2018-09-11T08:30:01.379Z,20.95
2018-09-11T08:31:11.216Z,20.90
2018-09-11T08:32:08.160Z,20.96
2018-09-11T08:33:06.318Z,21.02
2018-09-11T08:35:27.023Z,21.01
2018-09-11T08:36:34.093Z,21.08
2018-09-11T08:38:48.144Z,21.16
2018-09-11T08:39:46.623Z,21.17
2018-09-11T08:41:48.988Z,21.21
2018-09-11T08:43:06.819Z,21.24
2018-09-11T08:45:17.181Z,21.38
2018-09-11T08:46:22.103Z,21.32
2018-09-11T08:48:26.323Z,21.42
2018-09-11T08:49:43.540Z,21.45
2018-09-11T08:50:51.943Z,21.51
2018-09-11T08:51:39.967Z,21.44
2018-09-11T08:53:57.805Z,21.50
2018-09-11T08:55:01.498Z,21.54
2018-09-11T08:56:04.175Z,21.60
2018-09-11T08:57:09.296Z,21.63
2018-09-11T08:58:16.484Z,21.60
2018-09-11T08:59:19.354Z,21.64
2018-09-11T09:00:21.716Z,21.64
2018-09-11T09:01:27.975Z,21.61
2018-09-11T09:02:38.427Z,21.63
2018-09-11T09:04:51.148Z,21.74
2018-09-11T09:05:56.681Z,21.76
2018-09-11T09:07:02.320Z,21.82
2018-09-11T09:08:10.420Z,21.85
2018-09-11T09:09:08.792Z,21.91
2018-09-11T09:10:21.499Z,21.94
2018-09-11T09:11:20.690Z,21.99
2018-09-11T09:12:27.354Z,21.97
2018-09-11T09:13:40.575Z,22.06
2018-09-11T09:14:45.703Z,22.09
2018-09-11T09:15:45.477Z,22.14
2018-09-11T09:16:52.991Z,22.20
2018-09-11T09:17:50.646Z,22.25
2018-09-11T09:19:00.380Z,22.27
2018-09-11T09:20:03.461Z,22.35
2018-09-11T09:21:21.799Z,22.44
2018-09-11T09:22:17.197Z,22.41
2018-09-11T09:26:39.157Z,22.56
2018-09-11T09:28:48.077Z,22.50
2018-09-11T09:30:02.938Z,22.62
2018-09-11T09:32:17.803Z,22.72
2018-09-11T09:34:20.382Z,22.80
2018-09-11T09:35:30.733Z,22.83
2018-09-11T09:36:30.704Z,22.80
2018-09-11T09:37:36.178Z,22.83
2018-09-11T09:38:45.609Z,22.92
2018-09-11T09:39:55.349Z,22.96
2018-09-11T09:40:58.842Z,22.90
2018-09-11T09:42:02.944Z,22.99
2018-09-11T09:43:13.407Z,22.99
2018-09-11T09:44:12.487Z,22.93
2018-09-11T09:45:11.369Z,23.08
2018-09-11T09:46:18.136Z,23.07
2018-09-11T09:49:45.709Z,23.24
2018-09-11T09:50:43.672Z,23.22
2018-09-11T09:52:59.866Z,23.35
2018-09-11T09:53:58.030Z,23.47
2018-09-11T09:55:06.539Z,23.47
2018-09-11T09:56:08.594Z,23.45
2018-09-11T09:57:13.215Z,23.39
2018-09-11T09:58:31.656Z,23.53
2018-09-11T09:59:23.677Z,23.47
2018-09-11T10:01:42.129Z,23.50
2018-09-11T10:02:50.125Z,23.58
2018-09-11T10:03:49.519Z,23.60
2018-09-11T10:06:00.697Z,23.53
2018-09-11T10:07:13.424Z,23.60
2018-09-11T10:08:16.693Z,23.65
2018-09-11T10:09:21.517Z,23.62
2018-09-11T10:10:19.884Z,23.70
2018-09-11T10:11:27.882Z,23.68
2018-09-11T10:12:32.815Z,23.70
2018-09-11T10:13:52.793Z,23.72
2018-09-11T10:14:49.930Z,23.79
2018-09-11T10:16:01.199Z,23.85
2018-09-11T10:17:09.197Z,23.87
2018-09-11T10:18:08.385Z,23.98
2018-09-11T10:19:03.067Z,24.02
2018-09-11T10:20:21.509Z,24.07
2018-09-11T10:21:18.753Z,24.17
2018-09-11T10:22:29.726Z,24.26
2018-09-11T10:23:32.287Z,24.24
2018-09-11T10:24:38.749Z,24.24
2018-09-11T10:25:43.568Z,24.24
2018-09-11T10:30:05.519Z,24.44
2018-09-11T10:32:18.135Z,24.56
2018-09-11T10:33:42.535Z,24.57
2018-09-11T10:34:32.997Z,24.60
2018-09-11T10:35:42.533Z,24.60
2018-09-11T10:36:48.071Z,24.60
2018-09-11T10:37:56.476Z,24.69
2018-09-11T10:38:39.792Z,24.77
2018-09-11T10:40:03.764Z,24.85
2018-09-11T10:41:23.847Z,24.97
2018-09-11T10:42:32.248Z,24.98
2018-09-11T10:44:25.918Z,24.83
2018-09-11T10:45:32.072Z,24.94
2018-09-11T10:46:44.175Z,25.05
2018-09-11T10:48:53.250Z,25.09
2018-09-11T10:50:30.791Z,25.15
2018-09-11T10:51:43.557Z,25.19
2018-09-11T10:52:20.597Z,25.20
2018-09-11T10:53:37.573Z,25.37
2018-09-11T10:55:03.822Z,25.34
2018-09-11T10:55:36.883Z,25.32
2018-09-11T10:57:11.087Z,25.35
2018-09-11T10:58:17.710Z,25.43
2018-09-11T10:58:58.713Z,25.52
2018-09-11T11:00:06.302Z,25.56
2018-09-11T11:01:26.792Z,25.61
2018-09-11T11:02:26.390Z,25.68
2018-09-11T11:03:11.552Z,25.72
2018-09-11T11:04:46.585Z,25.69
2018-09-11T11:05:28.466Z,25.79
2018-09-11T11:06:31.446Z,25.74
2018-09-11T11:07:41.694Z,25.69
2018-09-11T11:08:33.818Z,25.69
2018-09-11T11:09:51.953Z,25.69
2018-09-11T11:10:52.167Z,25.68
2018-09-11T11:11:59.963Z,25.69
2018-09-11T11:13:00.991Z,25.84
2018-09-11T11:14:05.203Z,25.86
2018-09-11T11:15:16.371Z,25.86
2018-09-11T11:16:07.371Z,25.84
2018-09-11T11:17:34.616Z,25.86
2018-09-11T11:18:26.636Z,25.98
2018-09-11T11:19:35.654Z,25.94
2018-09-11T11:23:58.322Z,26.17
2018-09-11T11:25:59.263Z,26.12
2018-09-11T11:27:03.604Z,26.17
2018-09-11T11:28:27.545Z,26.09
2018-09-11T11:29:09.738Z,26.18
2018-09-11T11:31:30.951Z,26.18
2018-09-11T11:32:39.050Z,26.24
2018-09-11T11:33:49.418Z,26.24
2018-09-11T11:34:48.998Z,26.29
2018-09-11T11:35:55.190Z,26.27
2018-09-11T11:38:03.361Z,26.32
2018-09-11T11:39:29.070Z,26.40
2018-09-11T11:40:21.708Z,26.35
2018-09-11T11:41:16.701Z,26.31
2018-09-11T11:43:26.039Z,26.37
2018-09-11T11:44:28.916Z,26.40
2018-09-11T11:45:47.153Z,26.50
2018-09-11T11:46:51.169Z,26.55
2018-09-11T11:47:46.448Z,26.52
2018-09-11T11:49:05.504Z,26.46
2018-09-11T11:50:10.530Z,26.46
2018-09-11T11:52:19.671Z,26.55
2018-09-11T11:53:16.499Z,26.50
2018-09-11T11:54:29.833Z,26.65
2018-09-11T11:55:36.689Z,26.62
2018-09-11T11:56:35.990Z,26.74
2018-09-11T11:57:36.913Z,26.61
2018-09-11T11:58:45.434Z,26.68
2018-09-11T11:59:48.298Z,26.72
2018-09-11T12:01:09.504Z,26.79
2018-09-11T12:06:29.108Z,26.83
2018-09-11T12:08:33.220Z,26.87
2018-09-11T12:10:50.442Z,26.87
2018-09-11T12:12:08.470Z,26.91
2018-09-11T12:14:01.829Z,26.83
2018-09-11T12:15:06.859Z,26.89
2018-09-11T12:16:20.112Z,26.91
2018-09-11T12:18:39.342Z,27.02
2018-09-11T12:19:46.010Z,26.98
2018-09-11T12:20:52.572Z,27.04
2018-09-11T12:22:08.657Z,27.02
2018-09-11T12:22:58.733Z,27.11
2018-09-11T12:23:57.525Z,27.16
2018-09-11T12:25:10.730Z,27.21
2018-09-11T12:26:36.688Z,27.20
2018-09-11T12:27:21.827Z,27.21
2018-09-11T12:28:28.394Z,27.26
2018-09-11T12:29:16.505Z,27.35
2018-09-11T12:30:26.756Z,27.33
2018-09-11T12:31:35.470Z,27.39
2018-09-11T12:33:39.583Z,27.53
2018-09-11T12:34:39.900Z,27.59
2018-09-11T12:36:04.282Z,27.58
2018-09-11T12:36:56.200Z,27.64
2018-09-11T12:38:08.806Z,27.64
2018-09-11T12:39:11.886Z,27.71
2018-09-11T12:41:22.758Z,27.58
2018-09-11T12:42:26.760Z,27.51
2018-09-11T12:43:34.348Z,27.39
2018-09-11T12:44:36.506Z,27.46
2018-09-11T12:45:43.740Z,27.46
2018-09-11T12:46:45.409Z,27.58
2018-09-11T12:47:52.934Z,27.59
2018-09-11T12:48:53.024Z,27.53
2018-09-11T12:49:59.792Z,27.64
2018-09-11T12:51:15.371Z,27.58
2018-09-11T12:53:18.970Z,27.71
2018-09-11T12:54:25.741Z,27.70
2018-09-11T12:56:57.395Z,27.74
2018-09-11T12:57:44.400Z,27.76
2018-09-11T12:58:46.661Z,27.74
2018-09-11T12:59:50.460Z,27.77
2018-09-11T13:01:00.707Z,27.80
2018-09-11T13:02:14.521Z,27.82
2018-09-11T13:03:15.885Z,27.86
2018-09-11T13:04:29.103Z,27.80
2018-09-11T13:05:30.248Z,27.84
2018-09-11T13:06:27.089Z,27.84
2018-09-11T13:08:48.602Z,27.95
2018-09-11T13:09:53.214Z,27.92
2018-09-11T13:11:54.461Z,28.06
2018-09-11T13:13:05.325Z,27.95
2018-09-11T13:14:08.303Z,28.03
2018-09-11T13:15:02.850Z,28.10
2018-09-11T13:16:17.232Z,28.17
2018-09-11T13:17:33.319Z,28.19
2018-09-11T13:18:27.289Z,28.23
2018-09-11T13:19:38.867Z,28.38
2018-09-11T13:20:42.663Z,28.58
2018-09-11T13:21:40.939Z,28.77
2018-09-11T13:22:54.153Z,29.00
2018-09-11T13:24:07.372Z,29.29
2018-09-11T13:25:11.195Z,29.59
2018-09-11T13:26:30.027Z,30.02
2018-09-11T13:27:13.855Z,30.56
2018-09-11T13:29:28.005Z,32.25
2018-09-11T13:30:47.782Z,33.87
2018-09-11T13:31:44.917Z,35.73
2018-09-11T13:33:49.493Z,38.52
2018-09-11T13:35:52.327Z,40.80
2018-09-11T13:37:10.578Z,41.54
2018-09-11T13:38:16.312Z,41.83
2018-09-11T13:39:23.383Z,41.39
2018-09-11T13:40:20.934Z,41.43
2018-09-11T13:42:32.319Z,40.10
2018-09-11T13:43:51.684Z,39.83
2018-09-11T13:44:48.515Z,40.11
2018-09-11T13:46:57.874Z,39.77
2018-09-11T13:48:01.656Z,39.13
2018-09-11T13:50:20.513Z,38.14
2018-09-11T13:51:32.501Z,37.66
2018-09-11T13:53:27.703Z,36.60
2018-09-11T13:54:35.502Z,36.00
2018-09-11T13:56:46.782Z,35.10
2018-09-11T13:57:48.939Z,34.53
2018-09-11T14:00:12.205Z,33.63
2018-09-11T14:01:11.196Z,33.22
2018-09-11T14:02:31.483Z,32.85
2018-09-11T14:03:15.306Z,32.42
2018-09-11T14:04:34.356Z,32.20
2018-09-11T14:06:37.761Z,31.49
2018-09-11T14:07:46.779Z,31.28
2018-09-11T14:08:48.220Z,31.21
2018-09-11T14:09:49.049Z,30.90
2018-09-11T14:10:54.692Z,30.57
2018-09-11T14:12:02.483Z,30.43
2018-09-11T14:13:11.809Z,30.19
2018-09-11T14:14:12.033Z,29.84
2018-09-11T14:15:25.957Z,29.77
2018-09-11T14:16:38.470Z,29.57
2018-09-11T14:17:31.040Z,29.45
2018-09-11T14:18:37.145Z,29.31
2018-09-11T14:19:35.010Z,29.19
2018-09-11T14:21:57.344Z,28.96
2018-09-11T14:22:56.023Z,28.87
2018-09-11T14:23:57.772Z,28.69
2018-09-11T14:25:08.944Z,28.60
2018-09-11T14:26:12.845Z,28.50
2018-09-11T14:27:15.108Z,28.56
2018-09-11T14:29:32.951Z,28.35
2018-09-11T14:30:31.931Z,28.29
2018-09-11T14:31:44.948Z,28.13
2018-09-11T14:32:49.668Z,28.01
2018-09-11T14:33:56.652Z,27.99
2018-09-11T14:34:55.824Z,27.86
2018-09-11T14:36:02.286Z,28.01
2018-09-11T14:37:05.157Z,27.89
2018-09-11T14:38:05.281Z,27.84
2018-09-11T14:39:24.084Z,27.82
2018-09-11T14:40:39.397Z,27.74
2018-09-11T14:41:32.436Z,27.76
2018-09-11T14:42:43.504Z,27.59
2018-09-11T14:43:49.657Z,27.61
2018-09-11T14:45:53.257Z,27.57
2018-09-11T14:47:01.979Z,27.51
2018-09-11T14:48:00.858Z,27.39
2018-09-11T14:49:07.019Z,27.36
2018-09-11T14:50:11.727Z,27.31
2018-09-11T14:53:38.174Z,27.21
2018-09-11T14:54:40.847Z,27.20
2018-09-11T14:55:49.265Z,27.14
2018-09-11T14:56:47.110Z,27.13
2018-09-11T14:57:59.714Z,27.13
2018-09-11T14:58:58.800Z,27.11
2018-09-11T15:00:04.860Z,27.10
2018-09-11T15:01:16.635Z,26.99
2018-09-11T15:04:27.515Z,27.05
2018-09-11T15:05:35.258Z,26.95
2018-09-11T15:06:45.147Z,26.89
2018-09-11T15:08:00.241Z,26.98
2018-09-11T15:08:55.934Z,26.94
2018-09-11T15:10:05.757Z,26.79
2018-09-11T15:11:02.590Z,26.87
2018-09-11T15:12:02.187Z,26.89
2018-09-11T15:13:06.093Z,26.83
2018-09-11T15:14:05.588Z,26.77
2018-09-11T15:15:22.800Z,26.76
2018-09-11T15:16:23.729Z,26.79
2018-09-11T15:17:28.550Z,26.74
2018-09-11T15:19:43.619Z,26.64
2018-09-11T15:20:53.056Z,26.65
2018-09-11T15:21:48.449Z,26.69
2018-09-11T15:23:02.692Z,26.65
2018-09-11T15:23:55.737Z,26.61
2018-09-11T15:25:21.042Z,26.54
2018-09-11T15:26:23.522Z,26.65
2018-09-11T15:29:33.681Z,26.62
2018-09-11T15:30:35.727Z,26.65
2018-09-11T15:31:44.852Z,26.67
2018-09-11T15:32:55.613Z,26.68
2018-09-11T15:34:02.897Z,26.77
2018-09-11T15:35:08.326Z,26.76
2018-09-11T15:36:21.854Z,26.72
2018-09-11T15:37:30.675Z,26.62
2018-09-11T15:38:08.353Z,26.65
2018-09-11T15:39:48.709Z,26.64
2018-09-11T15:40:23.839Z,26.61
2018-09-11T15:41:33.066Z,26.46
2018-09-11T15:42:43.011Z,26.49
2018-09-11T15:44:40.867Z,26.49
2018-09-11T15:46:08.119Z,26.49
2018-09-11T15:47:08.975Z,26.50
2018-09-11T15:48:14.593Z,26.46
2018-09-11T15:49:14.697Z,26.43
2018-09-11T15:51:26.392Z,26.39
2018-09-11T15:52:33.540Z,26.39
2018-09-11T15:53:34.091Z,26.40
2018-09-11T15:54:46.386Z,26.39
2018-09-11T15:55:54.882Z,26.37
2018-09-11T15:57:14.490Z,26.35
2018-09-11T15:58:06.485Z,26.36
2018-09-11T15:59:14.695Z,26.35
2018-09-11T16:00:13.467Z,26.31
2018-09-11T16:01:24.646Z,26.36
2018-09-11T16:03:47.182Z,26.37
2018-09-11T16:04:34.081Z,26.27
2018-09-11T16:05:35.112Z,26.28
2018-09-11T16:06:57.378Z,26.27
2018-09-11T16:07:46.603Z,26.27
2018-09-11T16:09:08.830Z,26.25
2018-09-11T16:10:08.843Z,26.12
2018-09-11T16:11:18.884Z,26.20
2018-09-11T16:13:18.081Z,26.25
2018-09-11T16:16:29.265Z,26.15
2018-09-11T16:17:41.668Z,26.21
2018-09-11T16:18:52.940Z,26.11
2018-09-11T16:19:49.672Z,26.11
2018-09-11T16:20:59.008Z,26.20
2018-09-11T16:23:11.205Z,26.15
2018-09-11T16:24:21.361Z,26.15
2018-09-11T16:25:13.887Z,26.11
2018-09-11T16:26:18.401Z,26.08
2018-09-11T16:27:30.494Z,26.12
2018-09-11T16:28:46.274Z,26.08
2018-09-11T16:29:52.950Z,26.12
2018-09-11T16:30:41.783Z,26.08
2018-09-11T16:31:46.812Z,26.06
2018-09-11T16:33:00.144Z,26.11
2018-09-11T16:34:01.175Z,26.04
2018-09-11T16:35:13.565Z,25.98
2018-09-11T16:36:14.721Z,26.01
2018-09-11T16:37:17.271Z,25.94
2018-09-11T16:38:25.675Z,25.94
2018-09-11T16:40:36.750Z,25.98
2018-09-11T16:41:41.982Z,26.11
2018-09-11T16:42:51.719Z,25.93
2018-09-11T16:43:44.969Z,25.90
2018-09-11T16:45:10.270Z,26.01
2018-09-11T16:46:01.993Z,25.98
2018-09-11T16:48:06.608Z,25.94